sensor_id;sensor_type;location;lat;lon;timestamp;P1;durP1;ratioP1;P2;durP2;ratioP2
15354;SDS011;7777;52.254;9.618;2023-07-20T00:01:25;0.80;;;0.60;;
15354;SDS011;7777;52.254;9.618;2023-07-20T00:03:51;2.60;;;0.70;;
15354;SDS011;7777;52.254;9.618;2023-07-20T00:06:23;1.07;;;0.60;;
15354;SDS011;7777;52.254;9.618;2023-07-20T00:08:56;2.97;;;0.50;;
15354;SDS011;7777;52.254;9.618;2023-07-20T00:11:25;1.23;;;0.60;;
15354;SDS011;7777;52.254;9.618;2023-07-20T00:13:52;1.23;;;0.50;;
15354;SDS011;7777;52.254;9.618;2023-07-20T00:16:18;4.10;;;0.63;;
15354;SDS011;7777;52.254;9.618;2023-07-20T00:18:45;2.13;;;0.60;;
15354;SDS011;7777;52.254;9.618;2023-07-20T00:21:11;1.67;;;0.67;;
15354;SDS011;7777;52.254;9.618;2023-07-20T00:23:37;1.40;;;0.70;;
15354;SDS011;7777;52.254;9.618;2023-07-20T00:26:03;1.23;;;0.60;;
15354;SDS011;7777;52.254;9.618;2023-07-20T00:28:29;1.40;;;0.60;;
15354;SDS011;7777;52.254;9.618;2023-07-20T00:30:54;6.63;;;1.00;;
15354;SDS011;7777;52.254;9.618;2023-07-20T00:33:20;0.87;;;0.50;;
15354;SDS011;7777;52.254;9.618;2023-07-20T00:35:46;0.87;;;0.50;;
15354;SDS011;7777;52.254;9.618;2023-07-20T00:38:12;1.10;;;0.60;;
15354;SDS011;7777;52.254;9.618;2023-07-20T00:40:38;0.60;;;0.40;;
15354;SDS011;7777;52.254;9.618;2023-07-20T00:43:04;0.40;;;0.40;;
15354;SDS011;7777;52.254;9.618;2023-07-20T00:45:30;0.77;;;0.57;;
15354;SDS011;7777;52.254;9.618;2023-07-20T00:47:58;0.93;;;0.50;;
15354;SDS011;7777;52.254;9.618;2023-07-20T00:50:24;1.43;;;0.67;;
15354;SDS011;7777;52.254;9.618;2023-07-20T00:52:51;1.67;;;0.63;;
15354;SDS011;7777;52.254;9.618;2023-07-20T00:55:20;4.37;;;0.70;;
15354;SDS011;7777;52.254;9.618;2023-07-20T00:57:46;0.53;;;0.53;;
15354;SDS011;7777;52.254;9.618;2023-07-20T01:00:12;0.40;;;0.40;;
15354;SDS011;7777;52.254;9.618;2023-07-20T01:02:39;1.40;;;0.47;;
15354;SDS011;7777;52.254;9.618;2023-07-20T01:05:05;0.87;;;0.77;;
15354;SDS011;7777;52.254;9.618;2023-07-20T01:10:25;0.67;;;0.50;;
15354;SDS011;7777;52.254;9.618;2023-07-20T01:13:04;1.40;;;0.50;;
15354;SDS011;7777;52.254;9.618;2023-07-20T01:15:34;1.73;;;0.63;;
15354;SDS011;7777;52.254;9.618;2023-07-20T01:18:00;1.30;;;0.50;;
15354;SDS011;7777;52.254;9.618;2023-07-20T01:20:30;0.83;;;0.50;;
15354;SDS011;7777;52.254;9.618;2023-07-20T01:31:35;0.40;;;0.40;;
15354;SDS011;7777;52.254;9.618;2023-07-20T01:34:02;0.40;;;0.30;;
15354;SDS011;7777;52.254;9.618;2023-07-20T01:36:33;1.57;;;0.60;;
15354;SDS011;7777;52.254;9.618;2023-07-20T01:39:01;1.13;;;0.53;;
15354;SDS011;7777;52.254;9.618;2023-07-20T01:41:29;1.07;;;0.50;;
15354;SDS011;7777;52.254;9.618;2023-07-20T01:43:59;1.53;;;0.40;;
15354;SDS011;7777;52.254;9.618;2023-07-20T01:46:25;1.13;;;0.67;;
15354;SDS011;7777;52.254;9.618;2023-07-20T01:48:51;12.47;;;0.77;;
15354;SDS011;7777;52.254;9.618;2023-07-20T01:51:18;0.83;;;0.40;;
15354;SDS011;7777;52.254;9.618;2023-07-20T01:53:43;0.37;;;0.30;;
15354;SDS011;7777;52.254;9.618;2023-07-20T01:56:09;0.60;;;0.50;;
15354;SDS011;7777;52.254;9.618;2023-07-20T01:58:37;1.93;;;0.70;;
15354;SDS011;7777;52.254;9.618;2023-07-20T02:01:03;0.40;;;0.40;;
15354;SDS011;7777;52.254;9.618;2023-07-20T02:03:29;1.80;;;0.60;;
15354;SDS011;7777;52.254;9.618;2023-07-20T02:05:55;0.57;;;0.50;;
15354;SDS011;7777;52.254;9.618;2023-07-20T02:08:22;1.30;;;0.47;;
15354;SDS011;7777;52.254;9.618;2023-07-20T02:10:48;0.87;;;0.50;;
15354;SDS011;7777;52.254;9.618;2023-07-20T02:13:14;0.87;;;0.63;;
15354;SDS011;7777;52.254;9.618;2023-07-20T02:15:41;0.73;;;0.40;;
15354;SDS011;7777;52.254;9.618;2023-07-20T02:18:07;4.53;;;0.80;;
15354;SDS011;7777;52.254;9.618;2023-07-20T02:20:33;0.73;;;0.50;;
15354;SDS011;7777;52.254;9.618;2023-07-20T02:23:02;0.27;;;0.20;;
15354;SDS011;7777;52.254;9.618;2023-07-20T02:25:28;0.47;;;0.40;;
15354;SDS011;7777;52.254;9.618;2023-07-20T02:27:55;1.73;;;0.70;;
15354;SDS011;7777;52.254;9.618;2023-07-20T02:30:24;0.37;;;0.30;;
15354;SDS011;7777;52.254;9.618;2023-07-20T02:32:50;0.40;;;0.40;;
15354;SDS011;7777;52.254;9.618;2023-07-20T02:35:16;1.23;;;0.40;;
15354;SDS011;7777;52.254;9.618;2023-07-20T02:37:41;2.63;;;0.40;;
15354;SDS011;7777;52.254;9.618;2023-07-20T02:40:07;0.77;;;0.43;;
15354;SDS011;7777;52.254;9.618;2023-07-20T02:42:34;2.17;;;0.63;;
15354;SDS011;7777;52.254;9.618;2023-07-20T02:45:01;1.53;;;0.60;;
15354;SDS011;7777;52.254;9.618;2023-07-20T02:47:29;1.40;;;0.50;;
15354;SDS011;7777;52.254;9.618;2023-07-20T02:49:54;2.17;;;0.40;;
15354;SDS011;7777;52.254;9.618;2023-07-20T02:52:21;1.00;;;0.40;;
15354;SDS011;7777;52.254;9.618;2023-07-20T02:54:48;2.30;;;0.67;;
15354;SDS011;7777;52.254;9.618;2023-07-20T02:57:14;1.37;;;0.50;;
15354;SDS011;7777;52.254;9.618;2023-07-20T02:59:39;2.10;;;0.50;;
15354;SDS011;7777;52.254;9.618;2023-07-20T03:02:05;1.43;;;0.47;;
15354;SDS011;7777;52.254;9.618;2023-07-20T03:04:34;0.40;;;0.40;;
15354;SDS011;7777;52.254;9.618;2023-07-20T03:07:02;3.97;;;0.60;;
15354;SDS011;7777;52.254;9.618;2023-07-20T03:09:29;2.40;;;0.50;;
15354;SDS011;7777;52.254;9.618;2023-07-20T03:11:55;1.83;;;0.50;;
15354;SDS011;7777;52.254;9.618;2023-07-20T03:14:21;0.50;;;0.50;;
15354;SDS011;7777;52.254;9.618;2023-07-20T03:16:48;0.43;;;0.40;;
15354;SDS011;7777;52.254;9.618;2023-07-20T03:19:14;0.53;;;0.53;;
15354;SDS011;7777;52.254;9.618;2023-07-20T03:21:40;0.33;;;0.20;;
15354;SDS011;7777;52.254;9.618;2023-07-20T03:24:08;0.63;;;0.40;;
15354;SDS011;7777;52.254;9.618;2023-07-20T03:26:34;0.67;;;0.50;;
15354;SDS011;7777;52.254;9.618;2023-07-20T03:29:01;1.17;;;0.30;;
15354;SDS011;7777;52.254;9.618;2023-07-20T03:31:30;2.60;;;0.53;;
15354;SDS011;7777;52.254;9.618;2023-07-20T03:33:55;0.80;;;0.50;;
15354;SDS011;7777;52.254;9.618;2023-07-20T03:36:21;1.13;;;0.70;;
15354;SDS011;7777;52.254;9.618;2023-07-20T03:38:47;2.80;;;0.53;;
15354;SDS011;7777;52.254;9.618;2023-07-20T03:41:13;4.33;;;0.50;;
15354;SDS011;7777;52.254;9.618;2023-07-20T03:43:40;0.37;;;0.33;;
15354;SDS011;7777;52.254;9.618;2023-07-20T03:46:06;1.50;;;0.50;;
15354;SDS011;7777;52.254;9.618;2023-07-20T03:48:32;2.07;;;0.67;;
15354;SDS011;7777;52.254;9.618;2023-07-20T03:50:59;0.67;;;0.47;;
15354;SDS011;7777;52.254;9.618;2023-07-20T03:53:29;0.57;;;0.50;;
15354;SDS011;7777;52.254;9.618;2023-07-20T03:55:55;2.00;;;0.67;;
15354;SDS011;7777;52.254;9.618;2023-07-20T03:58:21;1.90;;;0.50;;
15354;SDS011;7777;52.254;9.618;2023-07-20T04:00:47;0.97;;;0.63;;
15354;SDS011;7777;52.254;9.618;2023-07-20T04:03:18;0.67;;;0.53;;
15354;SDS011;7777;52.254;9.618;2023-07-20T04:05:44;3.17;;;0.50;;
15354;SDS011;7777;52.254;9.618;2023-07-20T04:08:11;0.97;;;0.43;;
15354;SDS011;7777;52.254;9.618;2023-07-20T04:10:37;1.50;;;0.80;;
15354;SDS011;7777;52.254;9.618;2023-07-20T04:13:04;2.57;;;0.77;;
15354;SDS011;7777;52.254;9.618;2023-07-20T04:15:30;2.53;;;0.80;;
15354;SDS011;7777;52.254;9.618;2023-07-20T04:17:56;0.97;;;0.70;;
15354;SDS011;7777;52.254;9.618;2023-07-20T04:20:23;0.63;;;0.60;;
15354;SDS011;7777;52.254;9.618;2023-07-20T04:22:49;6.50;;;1.13;;
15354;SDS011;7777;52.254;9.618;2023-07-20T04:25:14;4.33;;;1.10;;
15354;SDS011;7777;52.254;9.618;2023-07-20T04:27:42;1.20;;;0.60;;
15354;SDS011;7777;52.254;9.618;2023-07-20T04:30:09;3.23;;;0.60;;
15354;SDS011;7777;52.254;9.618;2023-07-20T04:32:36;1.63;;;0.83;;
15354;SDS011;7777;52.254;9.618;2023-07-20T04:35:06;0.67;;;0.53;;
15354;SDS011;7777;52.254;9.618;2023-07-20T04:37:33;3.40;;;1.03;;
15354;SDS011;7777;52.254;9.618;2023-07-20T04:39:58;0.70;;;0.60;;
15354;SDS011;7777;52.254;9.618;2023-07-20T04:42:24;4.90;;;0.87;;
15354;SDS011;7777;52.254;9.618;2023-07-20T04:44:50;1.60;;;0.90;;
15354;SDS011;7777;52.254;9.618;2023-07-20T04:47:16;1.80;;;0.87;;
15354;SDS011;7777;52.254;9.618;2023-07-20T04:49:41;1.30;;;0.63;;
15354;SDS011;7777;52.254;9.618;2023-07-20T04:52:07;5.63;;;0.80;;
15354;SDS011;7777;52.254;9.618;2023-07-20T04:54:33;1.73;;;0.80;;
15354;SDS011;7777;52.254;9.618;2023-07-20T04:56:58;11.30;;;1.17;;
15354;SDS011;7777;52.254;9.618;2023-07-20T04:59:24;3.03;;;0.97;;
15354;SDS011;7777;52.254;9.618;2023-07-20T05:01:50;6.77;;;1.00;;
15354;SDS011;7777;52.254;9.618;2023-07-20T05:04:16;3.67;;;0.80;;
15354;SDS011;7777;52.254;9.618;2023-07-20T05:06:41;8.73;;;1.30;;
15354;SDS011;7777;52.254;9.618;2023-07-20T05:09:07;3.47;;;0.80;;
15354;SDS011;7777;52.254;9.618;2023-07-20T05:11:33;4.63;;;1.10;;
15354;SDS011;7777;52.254;9.618;2023-07-20T05:13:59;2.03;;;0.80;;
15354;SDS011;7777;52.254;9.618;2023-07-20T05:16:25;3.30;;;0.70;;
15354;SDS011;7777;52.254;9.618;2023-07-20T05:18:51;0.60;;;0.60;;
15354;SDS011;7777;52.254;9.618;2023-07-20T05:21:17;1.73;;;1.07;;
15354;SDS011;7777;52.254;9.618;2023-07-20T05:23:42;1.80;;;0.70;;
15354;SDS011;7777;52.254;9.618;2023-07-20T05:26:09;1.70;;;0.97;;
15354;SDS011;7777;52.254;9.618;2023-07-20T05:28:35;1.63;;;1.00;;
15354;SDS011;7777;52.254;9.618;2023-07-20T05:31:04;2.70;;;1.00;;
15354;SDS011;7777;52.254;9.618;2023-07-20T05:33:31;1.70;;;1.30;;
15354;SDS011;7777;52.254;9.618;2023-07-20T05:35:57;2.90;;;1.17;;
15354;SDS011;7777;52.254;9.618;2023-07-20T05:38:22;2.50;;;1.33;;
15354;SDS011;7777;52.254;9.618;2023-07-20T05:40:48;5.50;;;2.03;;
15354;SDS011;7777;52.254;9.618;2023-07-20T05:43:14;5.63;;;2.97;;
15354;SDS011;7777;52.254;9.618;2023-07-20T05:45:43;5.70;;;2.30;;
15354;SDS011;7777;52.254;9.618;2023-07-20T05:48:10;2.87;;;2.40;;
15354;SDS011;7777;52.254;9.618;2023-07-20T05:50:37;6.83;;;3.20;;
15354;SDS011;7777;52.254;9.618;2023-07-20T05:53:06;4.03;;;3.63;;
15354;SDS011;7777;52.254;9.618;2023-07-20T05:55:32;4.70;;;3.30;;
15354;SDS011;7777;52.254;9.618;2023-07-20T05:57:58;6.87;;;3.10;;
15354;SDS011;7777;52.254;9.618;2023-07-20T06:00:24;3.73;;;2.87;;
15354;SDS011;7777;52.254;9.618;2023-07-20T06:02:51;5.80;;;3.50;;
15354;SDS011;7777;52.254;9.618;2023-07-20T06:05:19;3.47;;;3.17;;
15354;SDS011;7777;52.254;9.618;2023-07-20T06:07:46;4.13;;;3.20;;
15354;SDS011;7777;52.254;9.618;2023-07-20T06:10:11;3.50;;;2.60;;
15354;SDS011;7777;52.254;9.618;2023-07-20T06:12:37;4.43;;;3.67;;
15354;SDS011;7777;52.254;9.618;2023-07-20T06:15:03;3.03;;;2.57;;
15354;SDS011;7777;52.254;9.618;2023-07-20T06:17:30;3.70;;;3.20;;
15354;SDS011;7777;52.254;9.618;2023-07-20T06:19:56;3.83;;;2.83;;
15354;SDS011;7777;52.254;9.618;2023-07-20T06:22:22;3.13;;;2.40;;
15354;SDS011;7777;52.254;9.618;2023-07-20T06:24:48;3.13;;;2.77;;
15354;SDS011;7777;52.254;9.618;2023-07-20T06:27:13;5.33;;;2.93;;
15354;SDS011;7777;52.254;9.618;2023-07-20T06:29:39;5.03;;;2.70;;
15354;SDS011;7777;52.254;9.618;2023-07-20T06:32:05;2.67;;;2.40;;
15354;SDS011;7777;52.254;9.618;2023-07-20T06:34:31;3.17;;;2.77;;
15354;SDS011;7777;52.254;9.618;2023-07-20T06:37:01;2.77;;;2.47;;
15354;SDS011;7777;52.254;9.618;2023-07-20T06:39:29;3.10;;;2.67;;
15354;SDS011;7777;52.254;9.618;2023-07-20T06:41:57;3.20;;;2.60;;
15354;SDS011;7777;52.254;9.618;2023-07-20T06:44:23;3.57;;;2.70;;
15354;SDS011;7777;52.254;9.618;2023-07-20T06:46:48;4.20;;;3.00;;
15354;SDS011;7777;52.254;9.618;2023-07-20T06:49:23;4.93;;;3.13;;
15354;SDS011;7777;52.254;9.618;2023-07-20T06:51:51;6.00;;;3.50;;
15354;SDS011;7777;52.254;9.618;2023-07-20T06:54:17;4.13;;;3.20;;
15354;SDS011;7777;52.254;9.618;2023-07-20T06:56:44;5.37;;;3.47;;
15354;SDS011;7777;52.254;9.618;2023-07-20T06:59:09;4.13;;;3.40;;
15354;SDS011;7777;52.254;9.618;2023-07-20T07:01:35;4.07;;;3.23;;
15354;SDS011;7777;52.254;9.618;2023-07-20T07:04:01;3.83;;;3.20;;
15354;SDS011;7777;52.254;9.618;2023-07-20T07:06:27;4.23;;;3.47;;
15354;SDS011;7777;52.254;9.618;2023-07-20T07:08:53;5.17;;;3.30;;
15354;SDS011;7777;52.254;9.618;2023-07-20T07:11:20;3.73;;;3.13;;
15354;SDS011;7777;52.254;9.618;2023-07-20T07:13:46;3.93;;;3.30;;
15354;SDS011;7777;52.254;9.618;2023-07-20T07:16:15;5.10;;;2.60;;
15354;SDS011;7777;52.254;9.618;2023-07-20T07:18:43;2.17;;;1.97;;
15354;SDS011;7777;52.254;9.618;2023-07-20T07:21:15;3.50;;;2.30;;
15354;SDS011;7777;52.254;9.618;2023-07-20T07:23:40;2.80;;;2.30;;
15354;SDS011;7777;52.254;9.618;2023-07-20T07:26:06;4.30;;;2.83;;
15354;SDS011;7777;52.254;9.618;2023-07-20T07:28:32;4.40;;;3.63;;
15354;SDS011;7777;52.254;9.618;2023-07-20T07:30:58;4.20;;;3.80;;
15354;SDS011;7777;52.254;9.618;2023-07-20T07:33:24;7.33;;;5.03;;
15354;SDS011;7777;52.254;9.618;2023-07-20T07:35:50;5.90;;;5.40;;
15354;SDS011;7777;52.254;9.618;2023-07-20T07:38:19;4.90;;;4.40;;
15354;SDS011;7777;52.254;9.618;2023-07-20T07:40:45;4.37;;;3.73;;
15354;SDS011;7777;52.254;9.618;2023-07-20T07:43:11;4.07;;;3.57;;
15354;SDS011;7777;52.254;9.618;2023-07-20T07:45:38;4.67;;;3.57;;
15354;SDS011;7777;52.254;9.618;2023-07-20T07:48:05;6.13;;;3.43;;
15354;SDS011;7777;52.254;9.618;2023-07-20T07:50:32;4.20;;;3.63;;
15354;SDS011;7777;52.254;9.618;2023-07-20T07:52:58;5.57;;;3.27;;
15354;SDS011;7777;52.254;9.618;2023-07-20T07:55:25;3.20;;;2.90;;
15354;SDS011;7777;52.254;9.618;2023-07-20T07:57:53;3.43;;;3.10;;
15354;SDS011;7777;52.254;9.618;2023-07-20T08:00:19;3.47;;;2.80;;
15354;SDS011;7777;52.254;9.618;2023-07-20T08:02:46;3.17;;;2.57;;
15354;SDS011;7777;52.254;9.618;2023-07-20T08:05:15;2.67;;;2.10;;
15354;SDS011;7777;52.254;9.618;2023-07-20T08:07:41;4.23;;;2.23;;
15354;SDS011;7777;52.254;9.618;2023-07-20T08:10:08;2.50;;;1.93;;
15354;SDS011;7777;52.254;9.618;2023-07-20T08:12:34;2.90;;;2.27;;
15354;SDS011;7777;52.254;9.618;2023-07-20T08:15:00;4.13;;;2.60;;
15354;SDS011;7777;52.254;9.618;2023-07-20T08:17:26;3.10;;;2.30;;
15354;SDS011;7777;52.254;9.618;2023-07-20T08:19:52;2.80;;;1.60;;
15354;SDS011;7777;52.254;9.618;2023-07-20T08:22:17;2.87;;;2.00;;
15354;SDS011;7777;52.254;9.618;2023-07-20T08:24:43;2.80;;;1.13;;
15354;SDS011;7777;52.254;9.618;2023-07-20T08:27:09;1.77;;;1.40;;
15354;SDS011;7777;52.254;9.618;2023-07-20T08:29:35;3.17;;;1.20;;
15354;SDS011;7777;52.254;9.618;2023-07-20T08:32:02;2.30;;;1.27;;
15354;SDS011;7777;52.254;9.618;2023-07-20T08:34:29;6.10;;;2.30;;
15354;SDS011;7777;52.254;9.618;2023-07-20T08:36:56;4.93;;;1.90;;
15354;SDS011;7777;52.254;9.618;2023-07-20T08:39:24;2.67;;;1.90;;
15354;SDS011;7777;52.254;9.618;2023-07-20T08:41:50;2.57;;;1.60;;
15354;SDS011;7777;52.254;9.618;2023-07-20T08:44:19;4.63;;;1.43;;
15354;SDS011;7777;52.254;9.618;2023-07-20T08:46:45;3.80;;;1.33;;
15354;SDS011;7777;52.254;9.618;2023-07-20T08:49:13;2.43;;;0.90;;
15354;SDS011;7777;52.254;9.618;2023-07-20T08:51:43;2.70;;;0.90;;
15354;SDS011;7777;52.254;9.618;2023-07-20T08:54:11;1.13;;;0.83;;
15354;SDS011;7777;52.254;9.618;2023-07-20T08:56:38;2.23;;;1.20;;
15354;SDS011;7777;52.254;9.618;2023-07-20T08:59:06;2.13;;;1.20;;
15354;SDS011;7777;52.254;9.618;2023-07-20T09:01:33;1.50;;;1.07;;
15354;SDS011;7777;52.254;9.618;2023-07-20T09:04:04;2.40;;;1.00;;
15354;SDS011;7777;52.254;9.618;2023-07-20T09:06:30;2.10;;;1.10;;
15354;SDS011;7777;52.254;9.618;2023-07-20T09:08:56;1.07;;;0.97;;
15354;SDS011;7777;52.254;9.618;2023-07-20T09:11:22;1.70;;;1.30;;
15354;SDS011;7777;52.254;9.618;2023-07-20T09:13:47;1.60;;;1.10;;
15354;SDS011;7777;52.254;9.618;2023-07-20T09:16:13;2.47;;;1.43;;
15354;SDS011;7777;52.254;9.618;2023-07-20T09:18:39;2.53;;;1.10;;
15354;SDS011;7777;52.254;9.618;2023-07-20T09:21:06;1.40;;;1.13;;
15354;SDS011;7777;52.254;9.618;2023-07-20T09:23:32;2.47;;;1.60;;
15354;SDS011;7777;52.254;9.618;2023-07-20T09:26:00;3.43;;;1.00;;
15354;SDS011;7777;52.254;9.618;2023-07-20T09:28:49;2.97;;;1.13;;
15354;SDS011;7777;52.254;9.618;2023-07-20T09:31:21;2.57;;;1.00;;
15354;SDS011;7777;52.254;9.618;2023-07-20T09:33:52;3.43;;;1.27;;
15354;SDS011;7777;52.254;9.618;2023-07-20T09:36:18;1.00;;;0.80;;
15354;SDS011;7777;52.254;9.618;2023-07-20T09:38:44;1.73;;;1.00;;
15354;SDS011;7777;52.254;9.618;2023-07-20T09:41:14;1.17;;;0.90;;
15354;SDS011;7777;52.254;9.618;2023-07-20T09:43:40;1.70;;;0.80;;
15354;SDS011;7777;52.254;9.618;2023-07-20T09:46:07;1.80;;;0.73;;
15354;SDS011;7777;52.254;9.618;2023-07-20T09:48:39;3.30;;;0.70;;
15354;SDS011;7777;52.254;9.618;2023-07-20T09:51:05;2.57;;;0.80;;
15354;SDS011;7777;52.254;9.618;2023-07-20T09:53:32;0.90;;;0.70;;
15354;SDS011;7777;52.254;9.618;2023-07-20T09:55:59;2.23;;;0.80;;
15354;SDS011;7777;52.254;9.618;2023-07-20T09:58:26;1.20;;;0.53;;
15354;SDS011;7777;52.254;9.618;2023-07-20T10:00:52;2.50;;;1.00;;
15354;SDS011;7777;52.254;9.618;2023-07-20T10:03:27;1.40;;;0.73;;
15354;SDS011;7777;52.254;9.618;2023-07-20T10:06:03;1.37;;;0.80;;
15354;SDS011;7777;52.254;9.618;2023-07-20T10:08:32;1.67;;;0.63;;
15354;SDS011;7777;52.254;9.618;2023-07-20T10:11:05;2.83;;;0.60;;
15354;SDS011;7777;52.254;9.618;2023-07-20T10:13:33;0.50;;;0.50;;
15354;SDS011;7777;52.254;9.618;2023-07-20T10:16:09;3.50;;;0.73;;
15354;SDS011;7777;52.254;9.618;2023-07-20T10:21:37;2.03;;;0.90;;
15354;SDS011;7777;52.254;9.618;2023-07-20T10:24:07;0.67;;;0.67;;
15354;SDS011;7777;52.254;9.618;2023-07-20T10:26:34;1.23;;;0.60;;
15354;SDS011;7777;52.254;9.618;2023-07-20T10:29:01;1.63;;;0.57;;
15354;SDS011;7777;52.254;9.618;2023-07-20T10:31:28;1.83;;;0.90;;
15354;SDS011;7777;52.254;9.618;2023-07-20T10:33:56;1.00;;;0.50;;
15354;SDS011;7777;52.254;9.618;2023-07-20T10:36:25;0.87;;;0.47;;
15354;SDS011;7777;52.254;9.618;2023-07-20T10:38:53;1.27;;;0.50;;
15354;SDS011;7777;52.254;9.618;2023-07-20T10:41:23;1.53;;;0.53;;
15354;SDS011;7777;52.254;9.618;2023-07-20T10:44:06;1.53;;;0.70;;
15354;SDS011;7777;52.254;9.618;2023-07-20T10:49:10;8.70;;;0.80;;
15354;SDS011;7777;52.254;9.618;2023-07-20T10:56:44;0.60;;;0.60;;
15354;SDS011;7777;52.254;9.618;2023-07-20T10:59:19;5.43;;;0.93;;
15354;SDS011;7777;52.254;9.618;2023-07-20T11:01:49;1.33;;;0.60;;
15354;SDS011;7777;52.254;9.618;2023-07-20T11:04:16;2.43;;;0.97;;
15354;SDS011;7777;52.254;9.618;2023-07-20T11:06:54;1.20;;;0.70;;
15354;SDS011;7777;52.254;9.618;2023-07-20T11:09:21;1.20;;;0.70;;
15354;SDS011;7777;52.254;9.618;2023-07-20T11:11:50;0.47;;;0.43;;
15354;SDS011;7777;52.254;9.618;2023-07-20T11:14:39;1.47;;;0.57;;
15354;SDS011;7777;52.254;9.618;2023-07-20T11:17:28;1.07;;;0.60;;
15354;SDS011;7777;52.254;9.618;2023-07-20T11:19:56;2.70;;;0.83;;
15354;SDS011;7777;52.254;9.618;2023-07-20T11:22:26;1.70;;;0.70;;
15354;SDS011;7777;52.254;9.618;2023-07-20T11:24:55;2.80;;;0.57;;
15354;SDS011;7777;52.254;9.618;2023-07-20T11:27:21;3.73;;;1.00;;
15354;SDS011;7777;52.254;9.618;2023-07-20T11:29:47;1.90;;;0.70;;
15354;SDS011;7777;52.254;9.618;2023-07-20T11:32:21;1.60;;;0.87;;
15354;SDS011;7777;52.254;9.618;2023-07-20T11:34:48;1.37;;;0.80;;
15354;SDS011;7777;52.254;9.618;2023-07-20T11:37:15;2.03;;;0.63;;
15354;SDS011;7777;52.254;9.618;2023-07-20T11:39:42;1.30;;;0.60;;
15354;SDS011;7777;52.254;9.618;2023-07-20T11:42:08;2.97;;;0.73;;
15354;SDS011;7777;52.254;9.618;2023-07-20T11:44:33;1.73;;;0.60;;
15354;SDS011;7777;52.254;9.618;2023-07-20T11:49:29;1.67;;;0.60;;
15354;SDS011;7777;52.254;9.618;2023-07-20T11:52:02;0.77;;;0.53;;
15354;SDS011;7777;52.254;9.618;2023-07-20T11:54:31;0.73;;;0.50;;
15354;SDS011;7777;52.254;9.618;2023-07-20T11:57:02;0.90;;;0.60;;
15354;SDS011;7777;52.254;9.618;2023-07-20T11:59:30;0.73;;;0.50;;
15354;SDS011;7777;52.254;9.618;2023-07-20T12:01:56;1.17;;;0.63;;
15354;SDS011;7777;52.254;9.618;2023-07-20T12:04:26;1.27;;;0.60;;
15354;SDS011;7777;52.254;9.618;2023-07-20T12:06:53;2.63;;;0.60;;
15354;SDS011;7777;52.254;9.618;2023-07-20T12:09:20;1.27;;;0.63;;
15354;SDS011;7777;52.254;9.618;2023-07-20T12:11:48;0.40;;;0.40;;
15354;SDS011;7777;52.254;9.618;2023-07-20T12:14:15;1.80;;;0.60;;
15354;SDS011;7777;52.254;9.618;2023-07-20T12:16:41;1.10;;;0.87;;
15354;SDS011;7777;52.254;9.618;2023-07-20T12:19:09;0.73;;;0.60;;
15354;SDS011;7777;52.254;9.618;2023-07-20T12:21:38;1.70;;;0.77;;
15354;SDS011;7777;52.254;9.618;2023-07-20T12:24:10;0.97;;;0.67;;
15354;SDS011;7777;52.254;9.618;2023-07-20T12:26:36;2.20;;;0.80;;
15354;SDS011;7777;52.254;9.618;2023-07-20T12:29:02;2.83;;;0.70;;
15354;SDS011;7777;52.254;9.618;2023-07-20T12:31:29;1.07;;;0.60;;
15354;SDS011;7777;52.254;9.618;2023-07-20T12:33:55;0.67;;;0.60;;
15354;SDS011;7777;52.254;9.618;2023-07-20T12:36:22;1.93;;;0.80;;
15354;SDS011;7777;52.254;9.618;2023-07-20T12:38:49;0.60;;;0.40;;
15354;SDS011;7777;52.254;9.618;2023-07-20T12:41:14;1.30;;;0.50;;
15354;SDS011;7777;52.254;9.618;2023-07-20T12:43:41;2.03;;;0.60;;
15354;SDS011;7777;52.254;9.618;2023-07-20T12:46:08;2.57;;;0.60;;
15354;SDS011;7777;52.254;9.618;2023-07-20T12:48:35;0.67;;;0.63;;
15354;SDS011;7777;52.254;9.618;2023-07-20T12:51:06;0.70;;;0.50;;
15354;SDS011;7777;52.254;9.618;2023-07-20T12:53:33;3.53;;;0.70;;
15354;SDS011;7777;52.254;9.618;2023-07-20T12:55:59;0.80;;;0.40;;
15354;SDS011;7777;52.254;9.618;2023-07-20T12:58:25;0.73;;;0.57;;
15354;SDS011;7777;52.254;9.618;2023-07-20T13:00:52;2.30;;;0.70;;
15354;SDS011;7777;52.254;9.618;2023-07-20T13:03:18;1.20;;;0.70;;
15354;SDS011;7777;52.254;9.618;2023-07-20T13:05:44;2.67;;;0.63;;
15354;SDS011;7777;52.254;9.618;2023-07-20T13:08:14;0.83;;;0.50;;
15354;SDS011;7777;52.254;9.618;2023-07-20T13:10:40;0.60;;;0.50;;
15354;SDS011;7777;52.254;9.618;2023-07-20T13:13:06;2.27;;;0.87;;
15354;SDS011;7777;52.254;9.618;2023-07-20T13:15:40;1.13;;;0.60;;
15354;SDS011;7777;52.254;9.618;2023-07-20T13:18:08;1.03;;;0.60;;
15354;SDS011;7777;52.254;9.618;2023-07-20T13:20:33;4.73;;;0.70;;
15354;SDS011;7777;52.254;9.618;2023-07-20T13:22:59;0.50;;;0.50;;
15354;SDS011;7777;52.254;9.618;2023-07-20T13:25:25;1.73;;;0.93;;
15354;SDS011;7777;52.254;9.618;2023-07-20T13:27:51;0.50;;;0.50;;
15354;SDS011;7777;52.254;9.618;2023-07-20T13:30:17;1.37;;;0.73;;
15354;SDS011;7777;52.254;9.618;2023-07-20T13:32:43;1.30;;;0.70;;
15354;SDS011;7777;52.254;9.618;2023-07-20T13:35:10;1.33;;;0.60;;
15354;SDS011;7777;52.254;9.618;2023-07-20T13:37:39;1.47;;;0.60;;
15354;SDS011;7777;52.254;9.618;2023-07-20T13:40:06;0.43;;;0.43;;
15354;SDS011;7777;52.254;9.618;2023-07-20T13:42:37;2.10;;;0.70;;
15354;SDS011;7777;52.254;9.618;2023-07-20T13:45:03;2.87;;;0.80;;
15354;SDS011;7777;52.254;9.618;2023-07-20T13:47:29;1.07;;;0.70;;
15354;SDS011;7777;52.254;9.618;2023-07-20T13:49:55;2.03;;;0.70;;
15354;SDS011;7777;52.254;9.618;2023-07-20T13:52:21;1.50;;;0.90;;
15354;SDS011;7777;52.254;9.618;2023-07-20T13:54:47;1.13;;;0.60;;
15354;SDS011;7777;52.254;9.618;2023-07-20T13:57:12;0.77;;;0.50;;
15354;SDS011;7777;52.254;9.618;2023-07-20T13:59:39;0.83;;;0.60;;
15354;SDS011;7777;52.254;9.618;2023-07-20T14:02:05;1.53;;;0.70;;
15354;SDS011;7777;52.254;9.618;2023-07-20T14:04:31;2.93;;;0.60;;
15354;SDS011;7777;52.254;9.618;2023-07-20T14:06:57;2.83;;;0.73;;
15354;SDS011;7777;52.254;9.618;2023-07-20T14:09:22;3.90;;;0.73;;
15354;SDS011;7777;52.254;9.618;2023-07-20T14:11:49;0.80;;;0.50;;
15354;SDS011;7777;52.254;9.618;2023-07-20T14:14:14;2.77;;;1.03;;
15354;SDS011;7777;52.254;9.618;2023-07-20T14:16:40;4.67;;;0.90;;
15354;SDS011;7777;52.254;9.618;2023-07-20T14:19:06;6.13;;;1.47;;
15354;SDS011;7777;52.254;9.618;2023-07-20T14:21:32;1.93;;;0.57;;
15354;SDS011;7777;52.254;9.618;2023-07-20T14:23:58;0.77;;;0.50;;
15354;SDS011;7777;52.254;9.618;2023-07-20T14:26:24;3.20;;;0.63;;
15354;SDS011;7777;52.254;9.618;2023-07-20T14:28:50;1.80;;;0.67;;
15354;SDS011;7777;52.254;9.618;2023-07-20T14:31:15;0.90;;;0.67;;
15354;SDS011;7777;52.254;9.618;2023-07-20T14:33:41;6.00;;;0.90;;
15354;SDS011;7777;52.254;9.618;2023-07-20T14:36:07;0.83;;;0.60;;
15354;SDS011;7777;52.254;9.618;2023-07-20T14:38:33;1.70;;;0.67;;
15354;SDS011;7777;52.254;9.618;2023-07-20T14:41:00;1.10;;;0.50;;
15354;SDS011;7777;52.254;9.618;2023-07-20T14:43:27;0.77;;;0.50;;
15354;SDS011;7777;52.254;9.618;2023-07-20T14:45:53;0.63;;;0.50;;
15354;SDS011;7777;52.254;9.618;2023-07-20T14:48:19;0.93;;;0.50;;
15354;SDS011;7777;52.254;9.618;2023-07-20T14:50:45;1.17;;;0.63;;
15354;SDS011;7777;52.254;9.618;2023-07-20T14:53:15;3.60;;;0.80;;
15354;SDS011;7777;52.254;9.618;2023-07-20T14:55:41;2.37;;;0.60;;
15354;SDS011;7777;52.254;9.618;2023-07-20T14:58:07;1.67;;;0.60;;
15354;SDS011;7777;52.254;9.618;2023-07-20T15:00:33;1.67;;;0.77;;
15354;SDS011;7777;52.254;9.618;2023-07-20T15:02:59;0.60;;;0.60;;
15354;SDS011;7777;52.254;9.618;2023-07-20T15:05:25;0.80;;;0.63;;
15354;SDS011;7777;52.254;9.618;2023-07-20T15:07:51;2.03;;;1.40;;
15354;SDS011;7777;52.254;9.618;2023-07-20T15:10:18;2.70;;;0.57;;
15354;SDS011;7777;52.254;9.618;2023-07-20T15:12:44;2.30;;;0.50;;
15354;SDS011;7777;52.254;9.618;2023-07-20T15:15:11;1.80;;;0.87;;
15354;SDS011;7777;52.254;9.618;2023-07-20T15:17:39;0.80;;;0.60;;
15354;SDS011;7777;52.254;9.618;2023-07-20T15:20:09;0.83;;;0.60;;
15354;SDS011;7777;52.254;9.618;2023-07-20T15:22:37;3.77;;;0.80;;
15354;SDS011;7777;52.254;9.618;2023-07-20T15:25:07;1.30;;;0.60;;